Point Pleasant, NJ (08742)

8:57 PM EDT on April 27, 2015 (GMT -0400)
Jersey Shore Wx Center | | Change Station
CLOSE
Current Station
Personal Weather Station
Location: Point Pleasant Beach, NJ
Elevation: 13 ft
Nearby Weather Stations

Elev 13 ft 40.09 °N, 74.05 °W | Updated 9 seconds ago

Overcast
Overcast
55.2 °F
Feels Like 55.2 °F
N
4.0
Wind Variable Wind from NW

Today
High -- | Low -- °F
--% Chance of Precip.
Yesterday
High -- | Low -- °F
Precip. -- in
6:01 AM 7:46 PM
Waxing Gibbous, 69% visible
Pressure 29.71 in
Visibility 10.0 miles
Clouds Overcast 9000 ft
Dew Point 38 °F
Humidity 53%
Rainfall 0.00 in
Snow Depth Not available.
UV 0.0 out of 12
Pollen 8.70 out of 12
Air Quality Not available.
Flu Activity Local Activity
METAR KBLM 280035Z AUTO 29010G15KT 10SM OVC090 13/M01 A2971 RMK AO1

More Conditions Fewer Conditions

Pressure 29.71 in
Visibility 10.0 miles
Clouds Overcast 9000 ft
Dew Point 38 °F
Humidity 53%
Rainfall 0.00 in
Snow Depth Not available.
UV 0.0 out of 12
Pollen 8.70 out of 12
Air Quality Not available.
Flu Activity Local Activity
METAR KBLM 280035Z AUTO 29010G15KT 10SM OVC090 13/M01 A2971 RMK AO1

More Conditions Fewer Conditions

10-Day Weather Forecast

Almanac

Astronomy

Apr. 27, 2015 Rise Set
Actual Time
Civil Twilight
Nautical Twilight
Astronomical Twilight
Moon
Length of Visible Light
Length of Day
Tomorrow will be .
, % of the Moon is Illuminated

Today's Extremes

State Highs State Lows

Community

WunderPhotos

Upload Photos

1,817,497 photos uploaded!

WunderBlogs® & News

Nearby

Air Quality

  Air Quality AQ Index Pollutant
Not available.

Snow Depth

Station Depth Elevation

Earthquake Activity

City Distance Mag. Time & Date
Minimum magnitude displayed is 2.5.

Coastal Water Temperatures

Place Temperature

Stations

Nearby Weather Stations

Station Location Temp. Windchill Dew Point Humidity Wind Precip. Elev Updated Type